Latest Weather Observations for King Island Airport

IDT60801

Issued at 6:31 pm EDT Monday 22 December 2014 (issued every 30 minutes, with the page automatically refreshed every 10 minutes)

About weather observations | Map of weather stations | Latest weather observations for TAS | Other Formats
Station Details ID: 098017 Name: KING ISLAND AIRPORT Lat: -39.88 Lon: 143.88 Height: 37.0 m
Data from the previous 72 hours. | See also: Recent months at King Island Airport
Date/Time
EDT
Temp
°C
App
Temp
°C
Dew
Point
Rel
Hum
%
Delta-T
°C
Wind Press
QNH
hPa
Press
MSL
hPa
Rain
since 9 am
mm
Dir
 
Spd
km/h
Gust
km/h
Spd
kts
Gust
kts
22/06:30pm 19.0 16.9 13.6 71 3.1 ESE 17 22 9 12 1009.1 1009.1 0.2
22/06:00pm 18.8 17.0 13.4 71 3.1 ESE 15 22 8 12 1009.1 1009.1 0.2
22/05:30pm 18.6 16.3 13.0 70 3.2 E 17 20 9 11 1009.9 1009.9 0.2
22/05:00pm 18.9 15.9 12.6 67 3.5 E 20 32 11 17 1010.8 1010.7 0.2
22/04:30pm 18.9 17.6 12.4 66 3.6 SSE 11 19 6 10 1010.5 1010.4 0.2
22/04:00pm 19.3 16.6 12.8 66 3.7 S 19 32 10 17 1010.4 1010.3 0.2
22/03:30pm 17.7 12.7 12.2 70 3.0 ENE 30 52 16 28 1009.2 1009.2 0.2
22/03:06pm 17.0 11.3 11.9 72 2.8 ENE 33 52 18 28 1009.2 1009.2 0.2
22/03:00pm 16.9 10.9 12.0 73 2.7 E 35 52 19 28 1009.3 1009.3 0.2
22/02:42pm 16.5 9.9 12.5 77 2.2 E 39 57 21 31 1009.2 1009.2 0.2
22/02:30pm 16.4 8.5 12.6 78 2.1 E 46 59 25 32 1009.2 1009.2 0.2
22/02:00pm 17.1 9.8 12.8 76 2.4 E 43 59 23 32 1009.6 1009.6 0.2
22/01:40pm 16.3 7.9 12.3 77 2.2 E 48 70 26 38 1010.2 1010.1 0.2
22/01:30pm 16.4 9.0 12.6 78 2.1 E 43 59 23 32 1010.7 1010.6 0.2
22/01:29pm 16.5 9.6 12.7 78 2.1 E 41 59 22 32 1010.9 1010.8 0.2
22/01:28pm 16.5 9.6 12.7 78 2.1 E 41 57 22 31 1011.0 1010.9 0.2
22/01:00pm 16.1 10.8 12.5 79 2.0 E 32 39 17 21 1012.9 1012.8 0.2
22/12:30pm 16.2 12.6 13.1 82 1.7 E 24 32 13 17 1013.7 1013.6 0.2
22/12:00pm 15.6 12.3 12.7 83 1.6 ESE 22 32 12 17 1013.9 1013.8 0.0
22/11:30am 15.4 12.9 12.3 82 1.7 SE 17 26 9 14 1014.5 1014.4 0.0
22/11:00am 16.3 13.7 11.9 75 2.4 SE 17 28 9 15 1015.2 1015.1 0.0
22/10:30am 16.5 14.8 12.5 77 2.2 SE 13 19 7 10 1015.4 1015.3 0.0
22/10:00am 16.0 14.6 12.2 78 2.1 SE 11 15 6 8 1015.6 1015.5 0.0
22/09:30am 15.6 14.1 13.1 85 1.4 ESE 13 19 7 10 1015.4 1015.3 0.0
22/09:00am 15.0 13.9 13.2 89 1.0 SSE 11 17 6 9 1015.4 1015.3 0.0
22/08:30am 14.5 13.4 13.2 92 0.7 S 11 15 6 8 1015.0 1014.9 0.0
22/08:00am 13.9 12.4 13.1 95 0.4 E 13 17 7 9 1014.3 1014.2 0.0
22/07:30am 13.0 11.3 12.5 97 0.3 ENE 13 15 7 8 1013.7 1013.6 0.0
22/07:00am 12.9 12.2 12.1 95 0.4 ESE 7 9 4 5 1014.0 1013.9 0.0
22/06:30am 12.8 11.7 12.0 95 0.4 ESE 9 13 5 7 1013.6 1013.5 0.0
22/06:00am 12.4 10.5 11.8 96 0.3 SE 13 17 7 9 1013.2 1013.1 0.0
22/05:30am 12.0 10.0 11.5 97 0.3 SE 13 17 7 9 1013.5 1013.4 0.0
22/05:00am 11.8 10.2 11.5 98 0.2 SSE 11 15 6 8 1014.1 1014.0 0.0
22/04:30am 9.9 9.1 9.8 99 0.1 SE 4 7 2 4 1014.3 1014.2 0.0
22/04:00am 8.9 7.2 8.3 96 0.3 SSE 7 11 4 6 1014.3 1014.2 0.0
22/03:30am 11.2 9.9 11.2 100 0.0 SE 9 11 5 6 1014.4 1014.3 0.0
22/03:00am 9.8 9.7 9.5 98 0.1 CALM 0 0 0 0 1014.8 1014.7 0.0
22/02:30am 10.7 9.7 10.2 97 0.3 ESE 6 7 3 4 1015.0 1014.9 0.0
22/02:00am 10.6 10.7 10.1 97 0.3 CALM 0 0 0 0 1014.8 1014.7 0.0
22/01:30am 10.6 10.6 9.8 95 0.4 CALM 0 0 0 0 1014.8 1014.7 0.0
22/01:00am 10.9 9.3 10.1 95 0.4 ESE 9 11 5 6 1014.8 1014.7 0.0
22/12:30am 11.4 11.6 10.5 94 0.5 CALM 0 0 0 0 1015.3 1015.2 0.0
22/12:00am 12.2 10.4 10.8 91 0.7 SSE 11 15 6 8 1015.2 1015.1 0.0
 
Date/Time
EDT
Temp
°C
App
Temp
°C
Dew
Point
Rel
Hum
%
Delta-T
°C
Wind Press
QNH
hPa
Press
MSL
hPa
Rain
since 9 am
mm
Dir
 
Spd
km/h
Gust
km/h
Spd
kts
Gust
kts
21/11:30pm 12.3 11.3 10.9 91 0.7 SSE 7 9 4 5 1015.6 1015.5 0.0
21/11:00pm 12.6 11.2 11.0 90 0.8 SE 9 11 5 6 1015.6 1015.5 0.0
21/10:30pm 13.0 12.1 11.2 89 0.9 SE 7 9 4 5 1015.7 1015.6 0.0
21/10:00pm 13.8 12.9 11.5 86 1.2 SSE 7 9 4 5 1015.7 1015.6 0.0
21/09:30pm 13.8 12.6 11.5 86 1.2 SSE 9 11 5 6 1015.4 1015.3 0.0
21/09:00pm 14.8 13.3 11.9 83 1.6 SSW 11 13 6 7 1015.2 1015.1 0.0
21/08:30pm 15.4 12.4 11.8 79 2.0 SSW 19 26 10 14 1014.8 1014.7 0.0
21/08:00pm 15.8 12.5 11.6 76 2.3 SSW 20 28 11 15 1014.5 1014.4 0.0
21/07:30pm 16.4 14.4 12.6 78 2.1 S 15 26 8 14 1014.2 1014.1 0.0
21/07:00pm 16.4 13.4 12.6 78 2.1 SSW 20 28 11 15 1014.2 1014.1 0.0
21/06:30pm 16.7 13.7 12.5 76 2.3 SSW 20 30 11 16 1014.1 1014.0 0.0
21/06:00pm 17.8 14.5 12.7 72 2.8 SSW 22 32 12 17 1013.9 1013.8 0.0
21/05:30pm 18.3 14.7 13.2 72 2.9 SSW 24 32 13 17 1014.2 1014.1 0.0
21/05:00pm 19.4 17.1 14.2 72 3.0 SSW 19 28 10 15 1014.1 1014.0 0.0
21/04:30pm 18.6 14.5 13.9 74 2.7 SW 28 35 15 19 1014.3 1014.2 0.0
21/04:24pm 18.4 14.6 13.7 74 2.7 WSW 26 35 14 19 1014.5 1014.4 0.0
21/04:14pm 18.5 15.1 13.8 74 2.7 WSW 24 35 13 19 1014.3 1014.2 0.0
21/04:00pm 19.1 15.6 14.4 74 2.7 WSW 26 35 14 19 1014.2 1014.1 0.0
21/03:30pm 19.3 16.5 14.3 73 2.9 NW 22 28 12 15 1013.6 1013.5 0.0
21/03:00pm 19.8 17.5 14.0 69 3.3 NNW 19 24 10 13 1013.7 1013.6 0.0
21/02:30pm 19.8 17.5 14.0 69 3.3 NW 19 26 10 14 1013.9 1013.8 0.0
21/02:00pm 20.4 18.3 13.6 65 3.9 NW 17 22 9 12 1014.1 1014.0 0.0
21/01:30pm 20.7 20.4 14.4 67 3.7 NW 9 15 5 8 1014.3 1014.2 0.0
21/01:00pm 20.3 20.1 13.7 66 3.8 WSW 7 11 4 6 1015.0 1014.9 0.0
21/12:30pm 18.5 17.0 13.1 71 3.0 W 13 17 7 9 1015.5 1015.4 0.0
21/12:00pm 18.4 15.7 12.8 70 3.1 W 19 28 10 15 1016.1 1016.0 0.0
21/11:30am 18.2 15.9 12.9 71 3.0 WSW 17 24 9 13 1015.8 1015.7 0.0
21/11:00am 18.8 17.0 13.4 71 3.1 WNW 15 19 8 10 1015.4 1015.3 0.0
21/10:30am 18.5 17.2 13.6 73 2.8 NW 13 17 7 9 1015.1 1015.0 0.0
21/10:00am 17.9 16.8 13.0 73 2.7 NNW 11 19 6 10 1015.3 1015.2 0.0
21/09:30am 17.8 15.9 12.9 73 2.7 NNE 15 19 8 10 1015.5 1015.4 0.0
21/09:00am 16.0 13.9 12.4 79 2.0 NNE 15 19 8 10 1015.2 1015.1 0.0
21/08:30am 15.5 13.9 12.8 84 1.5 NNE 13 19 7 10 1015.0 1014.9 0.0
21/08:00am 14.8 13.3 13.2 90 0.9 NNE 13 17 7 9 1015.0 1014.9 0.0
21/07:30am 13.8 12.3 13.2 96 0.3 NNE 13 17 7 9 1014.7 1014.6 0.0
21/07:00am 11.5 10.6 11.5 100 0.0 ENE 7 9 4 5 1014.5 1014.4 0.0
21/06:30am 9.6 8.4 9.6 100 0.0 ENE 6 9 3 5 1014.7 1014.6 0.0
21/06:16am 9.7 8.0 9.7 100 0.0 ESE 9 9 5 5 1014.7 1014.6 0.0
21/06:01am 9.2 7.7 9.2 100 0.0 ESE 7 9 4 5 1014.9 1014.8 0.0
21/06:00am 9.2 7.7 9.2 100 0.0 ESE 7 9 4 5 1015.0 1014.9 0.0
21/05:36am 8.8 7.2 8.8 100 0.0 E 7 7 4 4 1015.2 1015.1 0.0
21/05:33am 8.8 7.2 8.8 100 0.0 E 7 9 4 5 1015.2 1015.1 0.0
21/05:30am 8.8 7.2 8.8 100 0.0 E 7 9 4 5 1015.2 1015.1 0.0
21/05:15am 8.8 6.8 8.7 99 0.0 ESE 9 11 5 6 1015.4 1015.3 0.0
21/05:10am 9.0 7.1 8.9 99 0.0 ESE 9 11 5 6 1015.4 1015.3 0.0
21/05:00am 10.1 8.8 10.1 100 0.0 SE 7 9 4 5 1015.7 1015.6 0.0
21/04:49am 10.4 9.4 10.4 100 0.0 SE 6 7 3 4 1015.8 1015.7 0.0
21/04:47am 10.4 9.4 10.4 100 0.0 SE 6 11 3 6 1015.8 1015.7 0.0
21/04:30am 10.6 9.5 10.6 100 0.0 SE 7 9 4 5 1015.4 1015.3 0.0
21/04:05am 10.4 8.8 10.2 99 0.1 ESE 9 11 5 6 1014.9 1014.8 0.0
21/04:00am 10.5 8.9 10.3 99 0.1 ESE 9 11 5 6 1014.8 1014.7 0.0
21/03:50am 10.8 9.7 10.6 99 0.1 E 7 9 4 5 1014.8 1014.7 0.0
21/03:45am 10.8 9.7 10.6 99 0.1 E 7 9 4 5 1014.7 1014.6 0.0
21/03:30am 11.2 11.5 10.9 98 0.2 CALM 0 0 0 0 1014.6 1014.5 0.0
21/03:00am 11.4 11.8 11.1 98 0.2 CALM 0 0 0 0 1014.6 1014.5 0.0
21/02:54am 11.5 11.9 11.2 98 0.2 CALM 0 6 0 3 1014.6 1014.5 0.0
21/02:38am 11.6 10.6 11.1 97 0.3 NE 7 9 4 5 1014.8 1014.7 0.0
21/02:30am 11.7 10.8 11.2 97 0.3 NE 7 9 4 5 1015.0 1014.9 0.0
21/02:27am 11.8 10.9 11.3 97 0.3 ENE 7 9 4 5 1015.1 1015.0 0.0
21/02:00am 12.8 12.4 12.3 97 0.3 NE 6 7 3 4 1015.4 1015.3 0.0
21/01:30am 12.9 12.3 12.4 97 0.3 ESE 7 9 4 5 1015.7 1015.6 0.0
21/01:11am 12.9 12.3 12.4 97 0.3 ESE 7 9 4 5 1016.0 1015.9 0.0
21/01:00am 12.9 12.9 12.4 97 0.3 ESE 4 7 2 4 1016.2 1016.1 0.0
21/12:30am 12.4 13.0 11.8 96 0.3 CALM 0 0 0 0 1016.7 1016.6 0.0
21/12:00am 12.4 13.0 11.9 97 0.3 CALM 0 0 0 0 1017.1 1017.0 0.0
 
Date/Time
EDT
Temp
°C
App
Temp
°C
Dew
Point
Rel
Hum
%
Delta-T
°C
Wind Press
QNH
hPa
Press
MSL
hPa
Rain
since 9 am
mm
Dir
 
Spd
km/h
Gust
km/h
Spd
kts
Gust
kts
20/11:30pm 12.4 13.0 11.8 96 0.3 CALM 0 0 0 0 1017.2 1017.1 0.0
20/11:00pm 13.5 13.9 12.6 94 0.5 WSW 2 7 1 4 1017.3 1017.2 0.0
20/10:30pm 13.6 14.4 12.5 93 0.6 CALM 0 0 0 0 1017.6 1017.5 0.0
20/10:00pm 14.2 15.1 12.9 92 0.7 CALM 0 0 0 0 1017.5 1017.4 0.0
20/09:30pm 14.5 15.5 13.2 92 0.7 CALM 0 0 0 0 1017.4 1017.3 0.0
20/09:00pm 14.9 14.1 12.9 88 1.1 WSW 9 11 5 6 1017.3 1017.2 0.0
20/08:30pm 14.9 14.3 13.4 91 0.8 WSW 9 11 5 6 1017.4 1017.3 0.0
20/08:17pm 14.8 14.1 13.2 90 0.9 W 9 11 5 6 1017.3 1017.2 0.0
20/08:06pm 14.9 13.9 13.4 91 0.8 WSW 11 15 6 8 1017.4 1017.3 0.0
20/08:04pm 14.8 13.7 13.2 90 0.9 WSW 11 15 6 8 1017.4 1017.3 0.0
20/08:00pm 15.0 13.9 13.2 89 1.0 WSW 11 15 6 8 1017.4 1017.3 0.0
20/07:51pm 15.2 13.8 13.4 89 1.0 W 13 17 7 9 1017.4 1017.3 0.0
20/07:30pm 15.3 13.8 13.1 87 1.2 W 13 17 7 9 1017.3 1017.2 0.0
20/07:00pm 15.7 13.7 12.8 83 1.6 W 15 19 8 10 1017.1 1017.0 0.0
20/06:46pm 16.0 14.5 13.1 83 1.6 WSW 13 19 7 10 1017.1 1017.0 0.0
20/06:33pm 15.5 14.5 13.5 88 1.1 WSW 11 15 6 8 1017.1 1017.0 0.0
20/06:30pm 15.3 13.9 13.5 89 1.0 SW 13 15 7 8 1017.1 1017.0 0.0
20/06:00pm 14.5 11.3 13.2 92 0.7 SW 22 28 12 15 1017.2 1017.1 0.0
20/05:50pm 15.4 12.7 13.6 89 1.0 SW 20 28 11 15 1017.2 1017.1 0.0
20/05:43pm 15.7 13.1 13.2 85 1.4 SW 19 26 10 14 1017.1 1017.0 0.0
20/05:30pm 16.1 13.7 12.7 80 1.9 W 17 24 9 13 1017.1 1017.0 0.0
20/05:21pm 16.3 13.9 12.7 79 2.0 WSW 17 24 9 13 1017.2 1017.1 0.0
20/05:00pm 17.0 14.1 12.9 77 2.3 WSW 20 32 11 17 1017.3 1017.2 0.0
20/04:43pm 16.9 14.0 13.0 78 2.2 SW 20 26 11 14 1017.4 1017.3 0.0
20/04:30pm 16.8 14.0 13.1 79 2.1 WSW 20 30 11 16 1017.4 1017.3 0.0
20/04:00pm 17.1 13.4 12.8 76 2.4 W 24 32 13 17 1017.5 1017.4 0.0
20/03:30pm 17.7 13.8 13.2 75 2.5 W 26 35 14 19 1017.8 1017.8 0.0
20/03:07pm 16.7 13.0 12.7 77 2.2 W 24 32 13 17 1018.0 1018.0 0.0
20/03:00pm 17.1 13.2 13.4 79 2.1 W 26 32 14 17 1018.0 1018.0 0.0
20/02:54pm 17.2 13.4 13.5 79 2.1 W 26 32 14 17 1018.0 1018.0 0.0
20/02:30pm 17.6 13.8 13.5 77 2.3 W 26 33 14 18 1018.0 1018.0 0.0
20/02:00pm 17.5 13.5 13.0 75 2.5 W 26 33 14 18 1018.1 1018.1 0.0
20/01:52pm 17.3 13.7 13.0 76 2.4 W 24 32 13 17 1018.1 1018.1 0.0
20/01:41pm 17.6 13.2 12.9 74 2.6 W 28 35 15 19 1018.1 1018.1 0.0
20/01:30pm 17.1 13.2 13.4 79 2.1 W 26 37 14 20 1018.1 1018.1 0.0
20/01:00pm 17.6 13.3 13.1 75 2.5 W 28 35 15 19 1018.2 1018.2 0.0
20/12:30pm 17.3 13.2 12.8 75 2.5 WSW 26 33 14 18 1018.2 1018.2 0.0
20/12:00pm 16.4 11.5 12.6 78 2.1 W 30 37 16 20 1018.2 1018.2 0.0
20/11:30am 17.1 12.5 12.4 74 2.6 W 28 35 15 19 1018.2 1018.2 0.0
20/11:00am 17.0 12.0 12.3 74 2.6 W 30 39 16 21 1018.1 1018.1 0.0
20/10:30am 16.1 11.6 12.7 80 1.9 W 28 39 15 21 1018.0 1018.0 0.0
20/10:00am 16.0 11.4 12.2 78 2.1 WSW 28 39 15 21 1017.9 1017.9 0.0
20/09:30am 16.1 11.9 12.3 78 2.1 WSW 26 37 14 20 1017.7 1017.6 0.0
20/09:00am 16.1 11.3 11.5 74 2.5 W 28 39 15 21 1017.5 1017.4 0.0
20/08:30am 15.6 11.3 12.2 80 1.9 W 26 35 14 19 1017.2 1017.1 0.0
20/08:00am 14.5 10.4 12.7 89 1.0 WSW 26 37 14 20 1017.1 1017.0 0.0
20/07:30am 14.8 11.1 11.6 81 1.7 W 22 33 12 18 1016.8 1016.7 0.0
20/07:00am 15.0 10.9 11.6 80 1.8 W 24 39 13 21 1016.7 1016.6 0.0
20/06:30am 15.0 10.4 11.0 77 2.1 W 26 32 14 17 1016.3 1016.2 0.0
20/06:00am 14.9 9.9 11.1 78 2.0 W 28 37 15 20 1016.2 1016.1 0.0
20/05:30am 14.8 9.9 11.4 80 1.8 W 28 35 15 19 1016.1 1016.0 0.0
20/05:00am 14.9 10.0 11.3 79 1.9 WNW 28 41 15 22 1016.0 1015.9 0.0
20/04:30am 14.8 9.8 10.8 77 2.1 W 28 37 15 20 1016.0 1015.9 0.0
20/04:00am 14.6 9.9 10.8 78 2.0 W 26 33 14 18 1016.0 1015.9 0.0
20/03:30am 14.4 9.7 10.8 79 1.9 W 26 33 14 18 1016.0 1015.9 0.0
20/03:00am 14.5 9.9 10.9 79 1.9 W 26 35 14 19 1016.2 1016.1 0.0
20/02:30am 14.5 10.4 11.3 81 1.7 W 24 32 13 17 1016.5 1016.4 0.0
20/02:00am 14.5 10.4 11.6 83 1.6 W 24 32 13 17 1016.9 1016.8 0.0
20/01:30am 14.2 10.7 12.1 87 1.1 WNW 22 30 12 16 1017.3 1017.2 0.0
20/01:00am 14.8 10.7 11.4 80 1.8 WNW 24 37 13 20 1017.7 1017.6 0.0
20/12:30am 14.8 11.0 11.0 78 2.0 WNW 22 32 12 17 1017.8 1017.8 0.0
20/12:00am 14.8 11.2 10.6 76 2.2 WNW 20 28 11 15 1018.1 1018.1 0.0
 
Date/Time
EDT
Temp
°C
App
Temp
°C
Dew
Point
Rel
Hum
%
Delta-T
°C
Wind Press
QNH
hPa
Press
MSL
hPa
Rain
since 9 am
mm
Dir
 
Spd
km/h
Gust
km/h
Spd
kts
Gust
kts
19/11:30pm 14.7 11.0 10.3 75 2.3 WNW 20 28 11 15 1018.3 1018.3 0.0
19/11:00pm 14.3 10.5 9.7 74 2.4 W 20 28 11 15 1018.6 1018.6 0.0
19/10:30pm 14.2 10.3 9.6 74 2.4 W 20 28 11 15 1018.9 1018.9 0.0
19/10:00pm 14.6 10.7 9.6 72 2.6 W 20 28 11 15 1018.7 1018.7 0.0
19/09:30pm 14.4 10.1 9.4 72 2.6 W 22 32 12 17 1018.6 1018.6 0.0
19/09:00pm 14.3 9.5 8.7 69 2.8 W 24 32 13 17 1018.7 1018.7 0.0
19/08:30pm 14.6 10.0 8.3 66 3.2 W 22 32 12 17 1018.6 1018.6 0.0
19/08:00pm 14.3 9.2 7.6 64 3.3 W 24 33 13 18 1018.6 1018.6 0.0
19/07:30pm 15.4 9.9 7.7 60 3.8 W 26 33 14 18 1018.2 1018.2 0.0
19/07:00pm 15.2 9.7 7.7 61 3.7 W 26 33 14 18 1017.9 1017.9 0.0

Other Formats:

Comma delimited format used in spreadsheet applications
http://www.bom.gov.au/fwo/IDT60801/IDT60801.94850.axf

JavaScript Object Notation format (JSON) in row-major order
http://www.bom.gov.au/fwo/IDT60801/IDT60801.94850.json